Flugplatz Blomberg-Borkhausen

Für EDVF sind keine METAR/TAF Berichte vorhanden.
Es werden die Flugwettermeldungen vom Flugplatz Buckeburg Airport in 40 km Entfernung angezeigt.

Bericht für ETHB

vom 16.01. um 09:20 UTC

Wind 14 kt aus 230°

Sichtweite 3100 m

Temperatur 2.0°C

Taupunkt 1.0°C

Luftfeuchtigkeit 93%

Luftdruck 1020 hPa

ETHB 160920Z AUTO 23014KT 3100 // ////// 02/01 Q1020 ///
Keine Prognose (TAF) verfügbar.
Impressum